sensor_id;sensor_type;location;lat;lon;timestamp;P1;durP1;ratioP1;P2;durP2;ratioP2
61112;SDS011;47184;57.998;56.184;2023-08-07T00:01:00;0.00;;;0.00;;
61112;SDS011;47184;57.998;56.184;2023-08-07T00:03:27;0.00;;;0.00;;
61112;SDS011;47184;57.998;56.184;2023-08-07T00:05:53;0.00;;;0.00;;
61112;SDS011;47184;57.998;56.184;2023-08-07T00:08:20;0.00;;;0.00;;
61112;SDS011;47184;57.998;56.184;2023-08-07T00:10:46;0.00;;;0.00;;
61112;SDS011;47184;57.998;56.184;2023-08-07T00:13:13;0.00;;;0.00;;
61112;SDS011;47184;57.998;56.184;2023-08-07T00:15:40;0.00;;;0.00;;
61112;SDS011;47184;57.998;56.184;2023-08-07T00:18:06;0.00;;;0.00;;
61112;SDS011;47184;57.998;56.184;2023-08-07T00:20:32;0.00;;;0.00;;
61112;SDS011;47184;57.998;56.184;2023-08-07T00:22:58;0.00;;;0.00;;
61112;SDS011;47184;57.998;56.184;2023-08-07T00:25:24;0.00;;;0.00;;
61112;SDS011;47184;57.998;56.184;2023-08-07T00:27:50;0.00;;;0.00;;
61112;SDS011;47184;57.998;56.184;2023-08-07T00:30:17;0.00;;;0.00;;
61112;SDS011;47184;57.998;56.184;2023-08-07T00:32:44;0.00;;;0.00;;
61112;SDS011;47184;57.998;56.184;2023-08-07T00:35:10;0.20;;;0.00;;
61112;SDS011;47184;57.998;56.184;2023-08-07T00:37:36;1.13;;;0.00;;
61112;SDS011;47184;57.998;56.184;2023-08-07T00:40:03;0.00;;;0.00;;
61112;SDS011;47184;57.998;56.184;2023-08-07T00:42:31;0.00;;;0.00;;
61112;SDS011;47184;57.998;56.184;2023-08-07T00:44:57;0.00;;;0.00;;
61112;SDS011;47184;57.998;56.184;2023-08-07T00:47:24;0.00;;;0.00;;
61112;SDS011;47184;57.998;56.184;2023-08-07T00:49:51;0.00;;;0.00;;
61112;SDS011;47184;57.998;56.184;2023-08-07T00:52:17;0.10;;;0.00;;
61112;SDS011;47184;57.998;56.184;2023-08-07T00:54:43;0.00;;;0.00;;
61112;SDS011;47184;57.998;56.184;2023-08-07T00:57:11;0.00;;;0.00;;
61112;SDS011;47184;57.998;56.184;2023-08-07T00:59:38;0.00;;;0.00;;
61112;SDS011;47184;57.998;56.184;2023-08-07T01:02:05;0.00;;;0.00;;
61112;SDS011;47184;57.998;56.184;2023-08-07T01:04:32;0.00;;;0.00;;
61112;SDS011;47184;57.998;56.184;2023-08-07T01:06:58;0.00;;;0.00;;
61112;SDS011;47184;57.998;56.184;2023-08-07T01:09:25;0.00;;;0.00;;
61112;SDS011;47184;57.998;56.184;2023-08-07T01:14:37;0.00;;;0.00;;
61112;SDS011;47184;57.998;56.184;2023-08-07T01:17:14;0.00;;;0.00;;
61112;SDS011;47184;57.998;56.184;2023-08-07T01:19:41;0.00;;;0.00;;
61112;SDS011;47184;57.998;56.184;2023-08-07T01:22:12;0.00;;;0.00;;
61112;SDS011;47184;57.998;56.184;2023-08-07T01:24:44;0.00;;;0.00;;
61112;SDS011;47184;57.998;56.184;2023-08-07T01:29:57;0.00;;;0.00;;
61112;SDS011;47184;57.998;56.184;2023-08-07T01:35:14;0.00;;;0.00;;
61112;SDS011;47184;57.998;56.184;2023-08-07T01:37:42;0.00;;;0.00;;
61112;SDS011;47184;57.998;56.184;2023-08-07T01:40:10;0.00;;;0.00;;
61112;SDS011;47184;57.998;56.184;2023-08-07T01:42:37;0.00;;;0.00;;
61112;SDS011;47184;57.998;56.184;2023-08-07T01:45:04;0.00;;;0.00;;
61112;SDS011;47184;57.998;56.184;2023-08-07T01:47:33;0.00;;;0.00;;
61112;SDS011;47184;57.998;56.184;2023-08-07T01:50:00;0.00;;;0.00;;
61112;SDS011;47184;57.998;56.184;2023-08-07T01:52:31;0.00;;;0.00;;
61112;SDS011;47184;57.998;56.184;2023-08-07T01:54:57;0.00;;;0.00;;
61112;SDS011;47184;57.998;56.184;2023-08-07T01:57:23;0.00;;;0.00;;
61112;SDS011;47184;57.998;56.184;2023-08-07T01:59:49;0.00;;;0.00;;
61112;SDS011;47184;57.998;56.184;2023-08-07T02:02:15;0.10;;;0.00;;
61112;SDS011;47184;57.998;56.184;2023-08-07T02:04:41;0.10;;;0.00;;
61112;SDS011;47184;57.998;56.184;2023-08-07T02:07:07;0.00;;;0.00;;
61112;SDS011;47184;57.998;56.184;2023-08-07T02:09:33;0.00;;;0.00;;
61112;SDS011;47184;57.998;56.184;2023-08-07T02:11:59;0.00;;;0.00;;
61112;SDS011;47184;57.998;56.184;2023-08-07T02:14:28;0.00;;;0.00;;
61112;SDS011;47184;57.998;56.184;2023-08-07T02:16:54;0.00;;;0.00;;
61112;SDS011;47184;57.998;56.184;2023-08-07T02:19:20;0.00;;;0.00;;
61112;SDS011;47184;57.998;56.184;2023-08-07T02:21:46;0.00;;;0.00;;
61112;SDS011;47184;57.998;56.184;2023-08-07T02:24:13;0.00;;;0.00;;
61112;SDS011;47184;57.998;56.184;2023-08-07T02:26:39;0.00;;;0.00;;
61112;SDS011;47184;57.998;56.184;2023-08-07T02:29:05;0.00;;;0.00;;
61112;SDS011;47184;57.998;56.184;2023-08-07T02:31:32;0.00;;;0.00;;
61112;SDS011;47184;57.998;56.184;2023-08-07T02:33:58;0.00;;;0.00;;
61112;SDS011;47184;57.998;56.184;2023-08-07T02:36:24;0.00;;;0.00;;
61112;SDS011;47184;57.998;56.184;2023-08-07T02:38:50;0.00;;;0.00;;
61112;SDS011;47184;57.998;56.184;2023-08-07T02:41:16;0.00;;;0.00;;
61112;SDS011;47184;57.998;56.184;2023-08-07T02:43:42;0.10;;;0.00;;
61112;SDS011;47184;57.998;56.184;2023-08-07T02:46:08;0.15;;;0.00;;
61112;SDS011;47184;57.998;56.184;2023-08-07T02:48:34;0.00;;;0.00;;
61112;SDS011;47184;57.998;56.184;2023-08-07T02:51:00;0.00;;;0.00;;
61112;SDS011;47184;57.998;56.184;2023-08-07T02:53:26;0.00;;;0.00;;
61112;SDS011;47184;57.998;56.184;2023-08-07T02:55:53;0.00;;;0.00;;
61112;SDS011;47184;57.998;56.184;2023-08-07T02:58:19;0.00;;;0.00;;
61112;SDS011;47184;57.998;56.184;2023-08-07T03:00:45;0.00;;;0.00;;
61112;SDS011;47184;57.998;56.184;2023-08-07T03:03:11;0.00;;;0.00;;
61112;SDS011;47184;57.998;56.184;2023-08-07T03:05:37;0.00;;;0.00;;
61112;SDS011;47184;57.998;56.184;2023-08-07T03:08:03;0.00;;;0.00;;
61112;SDS011;47184;57.998;56.184;2023-08-07T03:10:29;0.00;;;0.00;;
61112;SDS011;47184;57.998;56.184;2023-08-07T03:12:55;0.13;;;0.00;;
61112;SDS011;47184;57.998;56.184;2023-08-07T03:15:21;0.00;;;0.00;;
61112;SDS011;47184;57.998;56.184;2023-08-07T03:17:47;0.00;;;0.00;;
61112;SDS011;47184;57.998;56.184;2023-08-07T03:20:13;0.00;;;0.00;;
61112;SDS011;47184;57.998;56.184;2023-08-07T03:22:39;0.00;;;0.00;;
61112;SDS011;47184;57.998;56.184;2023-08-07T03:25:05;0.00;;;0.00;;
61112;SDS011;47184;57.998;56.184;2023-08-07T03:27:32;0.00;;;0.00;;
61112;SDS011;47184;57.998;56.184;2023-08-07T03:29:58;0.00;;;0.00;;
61112;SDS011;47184;57.998;56.184;2023-08-07T03:32:30;0.00;;;0.00;;
61112;SDS011;47184;57.998;56.184;2023-08-07T03:34:57;0.00;;;0.00;;
61112;SDS011;47184;57.998;56.184;2023-08-07T03:37:23;0.00;;;0.00;;
61112;SDS011;47184;57.998;56.184;2023-08-07T03:39:49;0.00;;;0.00;;
61112;SDS011;47184;57.998;56.184;2023-08-07T03:42:15;0.00;;;0.00;;
61112;SDS011;47184;57.998;56.184;2023-08-07T03:44:43;0.00;;;0.00;;
61112;SDS011;47184;57.998;56.184;2023-08-07T03:47:11;0.00;;;0.00;;
61112;SDS011;47184;57.998;56.184;2023-08-07T03:49:37;0.00;;;0.00;;
61112;SDS011;47184;57.998;56.184;2023-08-07T03:52:04;0.00;;;0.00;;
61112;SDS011;47184;57.998;56.184;2023-08-07T03:54:30;0.00;;;0.00;;
61112;SDS011;47184;57.998;56.184;2023-08-07T03:56:57;0.20;;;0.00;;
61112;SDS011;47184;57.998;56.184;2023-08-07T03:59:23;0.25;;;0.00;;
61112;SDS011;47184;57.998;56.184;2023-08-07T04:01:49;0.00;;;0.00;;
61112;SDS011;47184;57.998;56.184;2023-08-07T04:04:15;0.00;;;0.00;;
61112;SDS011;47184;57.998;56.184;2023-08-07T04:06:42;0.20;;;0.00;;
61112;SDS011;47184;57.998;56.184;2023-08-07T04:09:09;0.00;;;0.00;;
61112;SDS011;47184;57.998;56.184;2023-08-07T04:11:37;0.00;;;0.00;;
61112;SDS011;47184;57.998;56.184;2023-08-07T04:14:03;0.00;;;0.00;;
61112;SDS011;47184;57.998;56.184;2023-08-07T04:16:29;0.00;;;0.00;;
61112;SDS011;47184;57.998;56.184;2023-08-07T04:18:56;0.00;;;0.00;;
61112;SDS011;47184;57.998;56.184;2023-08-07T04:21:23;0.00;;;0.00;;
61112;SDS011;47184;57.998;56.184;2023-08-07T04:23:49;0.00;;;0.00;;
61112;SDS011;47184;57.998;56.184;2023-08-07T04:26:15;0.00;;;0.00;;
61112;SDS011;47184;57.998;56.184;2023-08-07T04:28:41;0.00;;;0.00;;
61112;SDS011;47184;57.998;56.184;2023-08-07T04:31:08;0.00;;;0.00;;
61112;SDS011;47184;57.998;56.184;2023-08-07T04:33:34;0.10;;;0.00;;
61112;SDS011;47184;57.998;56.184;2023-08-07T04:36:01;0.00;;;0.00;;
61112;SDS011;47184;57.998;56.184;2023-08-07T04:38:27;0.00;;;0.00;;
61112;SDS011;47184;57.998;56.184;2023-08-07T04:40:53;0.00;;;0.00;;
61112;SDS011;47184;57.998;56.184;2023-08-07T04:43:19;0.00;;;0.00;;
61112;SDS011;47184;57.998;56.184;2023-08-07T04:45:46;0.00;;;0.00;;
61112;SDS011;47184;57.998;56.184;2023-08-07T04:48:12;0.00;;;0.00;;
61112;SDS011;47184;57.998;56.184;2023-08-07T04:50:39;0.00;;;0.00;;
61112;SDS011;47184;57.998;56.184;2023-08-07T04:53:05;0.00;;;0.00;;
61112;SDS011;47184;57.998;56.184;2023-08-07T04:55:32;0.00;;;0.00;;
61112;SDS011;47184;57.998;56.184;2023-08-07T04:57:58;0.00;;;0.00;;
61112;SDS011;47184;57.998;56.184;2023-08-07T05:00:24;0.10;;;0.00;;
61112;SDS011;47184;57.998;56.184;2023-08-07T05:02:50;0.00;;;0.00;;
61112;SDS011;47184;57.998;56.184;2023-08-07T05:05:16;0.08;;;0.00;;
61112;SDS011;47184;57.998;56.184;2023-08-07T05:07:47;0.00;;;0.00;;
61112;SDS011;47184;57.998;56.184;2023-08-07T05:10:13;0.10;;;0.00;;
61112;SDS011;47184;57.998;56.184;2023-08-07T05:12:39;0.00;;;0.00;;
61112;SDS011;47184;57.998;56.184;2023-08-07T05:15:06;0.00;;;0.00;;
61112;SDS011;47184;57.998;56.184;2023-08-07T05:17:32;0.68;;;0.05;;
61112;SDS011;47184;57.998;56.184;2023-08-07T05:19:58;0.00;;;0.00;;
61112;SDS011;47184;57.998;56.184;2023-08-07T05:22:24;0.00;;;0.00;;
61112;SDS011;47184;57.998;56.184;2023-08-07T05:24:50;0.00;;;0.00;;
61112;SDS011;47184;57.998;56.184;2023-08-07T05:27:16;0.00;;;0.00;;
61112;SDS011;47184;57.998;56.184;2023-08-07T05:29:42;0.00;;;0.00;;
61112;SDS011;47184;57.998;56.184;2023-08-07T05:32:13;0.00;;;0.00;;
61112;SDS011;47184;57.998;56.184;2023-08-07T05:34:40;0.00;;;0.00;;
61112;SDS011;47184;57.998;56.184;2023-08-07T05:37:07;0.00;;;0.00;;
61112;SDS011;47184;57.998;56.184;2023-08-07T05:39:34;0.00;;;0.00;;
61112;SDS011;47184;57.998;56.184;2023-08-07T05:42:01;0.00;;;0.00;;
61112;SDS011;47184;57.998;56.184;2023-08-07T05:44:28;0.00;;;0.00;;
61112;SDS011;47184;57.998;56.184;2023-08-07T05:46:55;0.00;;;0.00;;
61112;SDS011;47184;57.998;56.184;2023-08-07T05:49:22;0.20;;;0.00;;
61112;SDS011;47184;57.998;56.184;2023-08-07T05:51:48;0.00;;;0.00;;
61112;SDS011;47184;57.998;56.184;2023-08-07T05:54:14;0.00;;;0.00;;
61112;SDS011;47184;57.998;56.184;2023-08-07T05:56:40;0.00;;;0.00;;
61112;SDS011;47184;57.998;56.184;2023-08-07T05:59:07;0.00;;;0.00;;
61112;SDS011;47184;57.998;56.184;2023-08-07T06:01:33;0.00;;;0.00;;
61112;SDS011;47184;57.998;56.184;2023-08-07T06:03:59;0.00;;;0.00;;
61112;SDS011;47184;57.998;56.184;2023-08-07T06:06:25;0.00;;;0.00;;
61112;SDS011;47184;57.998;56.184;2023-08-07T06:08:54;0.00;;;0.00;;
61112;SDS011;47184;57.998;56.184;2023-08-07T06:11:20;0.00;;;0.00;;
61112;SDS011;47184;57.998;56.184;2023-08-07T06:13:46;0.00;;;0.00;;
61112;SDS011;47184;57.998;56.184;2023-08-07T06:16:12;0.00;;;0.00;;
61112;SDS011;47184;57.998;56.184;2023-08-07T06:18:38;0.00;;;0.00;;
61112;SDS011;47184;57.998;56.184;2023-08-07T06:21:04;0.00;;;0.00;;
61112;SDS011;47184;57.998;56.184;2023-08-07T06:23:32;0.10;;;0.05;;
61112;SDS011;47184;57.998;56.184;2023-08-07T06:25:59;0.00;;;0.00;;
61112;SDS011;47184;57.998;56.184;2023-08-07T06:28:31;0.00;;;0.00;;
61112;SDS011;47184;57.998;56.184;2023-08-07T06:31:05;0.00;;;0.00;;
61112;SDS011;47184;57.998;56.184;2023-08-07T06:33:33;0.00;;;0.00;;
61112;SDS011;47184;57.998;56.184;2023-08-07T06:35:59;0.00;;;0.00;;
61112;SDS011;47184;57.998;56.184;2023-08-07T06:38:26;0.00;;;0.00;;
61112;SDS011;47184;57.998;56.184;2023-08-07T06:40:52;0.00;;;0.00;;
61112;SDS011;47184;57.998;56.184;2023-08-07T06:43:18;0.00;;;0.00;;
61112;SDS011;47184;57.998;56.184;2023-08-07T06:45:48;0.00;;;0.00;;
61112;SDS011;47184;57.998;56.184;2023-08-07T06:48:15;0.00;;;0.00;;
61112;SDS011;47184;57.998;56.184;2023-08-07T06:50:42;0.00;;;0.00;;
61112;SDS011;47184;57.998;56.184;2023-08-07T06:53:08;0.00;;;0.00;;
61112;SDS011;47184;57.998;56.184;2023-08-07T06:55:34;0.00;;;0.00;;
61112;SDS011;47184;57.998;56.184;2023-08-07T06:58:00;0.00;;;0.00;;
61112;SDS011;47184;57.998;56.184;2023-08-07T07:00:25;0.10;;;0.10;;
61112;SDS011;47184;57.998;56.184;2023-08-07T07:02:52;0.10;;;0.10;;
61112;SDS011;47184;57.998;56.184;2023-08-07T07:05:18;0.10;;;0.10;;
61112;SDS011;47184;57.998;56.184;2023-08-07T07:07:44;0.10;;;0.10;;
61112;SDS011;47184;57.998;56.184;2023-08-07T07:10:10;0.10;;;0.10;;
61112;SDS011;47184;57.998;56.184;2023-08-07T07:12:36;0.10;;;0.10;;
61112;SDS011;47184;57.998;56.184;2023-08-07T07:15:02;0.10;;;0.10;;
61112;SDS011;47184;57.998;56.184;2023-08-07T07:17:31;0.10;;;0.10;;
61112;SDS011;47184;57.998;56.184;2023-08-07T07:19:57;0.00;;;0.00;;
61112;SDS011;47184;57.998;56.184;2023-08-07T07:22:23;0.10;;;0.10;;
61112;SDS011;47184;57.998;56.184;2023-08-07T07:24:49;0.10;;;0.10;;
61112;SDS011;47184;57.998;56.184;2023-08-07T07:27:15;0.10;;;0.10;;
61112;SDS011;47184;57.998;56.184;2023-08-07T07:29:41;0.10;;;0.10;;
61112;SDS011;47184;57.998;56.184;2023-08-07T07:32:07;0.10;;;0.10;;
61112;SDS011;47184;57.998;56.184;2023-08-07T07:34:33;0.10;;;0.10;;
61112;SDS011;47184;57.998;56.184;2023-08-07T07:36:59;0.10;;;0.10;;
61112;SDS011;47184;57.998;56.184;2023-08-07T07:39:25;0.00;;;0.00;;
61112;SDS011;47184;57.998;56.184;2023-08-07T07:41:51;0.10;;;0.10;;
61112;SDS011;47184;57.998;56.184;2023-08-07T07:44:17;0.00;;;0.00;;
61112;SDS011;47184;57.998;56.184;2023-08-07T07:46:43;0.10;;;0.10;;
61112;SDS011;47184;57.998;56.184;2023-08-07T07:49:09;0.10;;;0.10;;
61112;SDS011;47184;57.998;56.184;2023-08-07T07:51:35;0.10;;;0.10;;
61112;SDS011;47184;57.998;56.184;2023-08-07T07:54:02;0.10;;;0.10;;
61112;SDS011;47184;57.998;56.184;2023-08-07T07:56:28;0.20;;;0.20;;
61112;SDS011;47184;57.998;56.184;2023-08-07T07:58:55;0.10;;;0.10;;
61112;SDS011;47184;57.998;56.184;2023-08-07T08:01:21;0.20;;;0.20;;
61112;SDS011;47184;57.998;56.184;2023-08-07T08:03:47;0.10;;;0.10;;
61112;SDS011;47184;57.998;56.184;2023-08-07T08:06:13;0.20;;;0.20;;
61112;SDS011;47184;57.998;56.184;2023-08-07T08:08:39;0.20;;;0.20;;
61112;SDS011;47184;57.998;56.184;2023-08-07T08:11:05;0.20;;;0.20;;
61112;SDS011;47184;57.998;56.184;2023-08-07T08:13:31;0.20;;;0.20;;
61112;SDS011;47184;57.998;56.184;2023-08-07T08:15:57;0.22;;;0.22;;
61112;SDS011;47184;57.998;56.184;2023-08-07T08:18:23;0.20;;;0.20;;
61112;SDS011;47184;57.998;56.184;2023-08-07T08:20:49;0.20;;;0.20;;
61112;SDS011;47184;57.998;56.184;2023-08-07T08:23:15;0.20;;;0.20;;
61112;SDS011;47184;57.998;56.184;2023-08-07T08:25:42;0.20;;;0.20;;
61112;SDS011;47184;57.998;56.184;2023-08-07T08:28:08;0.20;;;0.20;;
61112;SDS011;47184;57.998;56.184;2023-08-07T08:30:34;0.20;;;0.20;;
61112;SDS011;47184;57.998;56.184;2023-08-07T08:33:00;0.30;;;0.30;;
61112;SDS011;47184;57.998;56.184;2023-08-07T08:35:26;0.35;;;0.35;;
61112;SDS011;47184;57.998;56.184;2023-08-07T08:37:53;0.30;;;0.30;;
61112;SDS011;47184;57.998;56.184;2023-08-07T08:40:19;0.20;;;0.20;;
61112;SDS011;47184;57.998;56.184;2023-08-07T08:42:45;0.30;;;0.30;;
61112;SDS011;47184;57.998;56.184;2023-08-07T08:45:14;0.40;;;0.40;;
61112;SDS011;47184;57.998;56.184;2023-08-07T08:47:41;0.30;;;0.30;;
61112;SDS011;47184;57.998;56.184;2023-08-07T08:50:12;0.20;;;0.20;;
61112;SDS011;47184;57.998;56.184;2023-08-07T08:52:43;0.10;;;0.10;;
61112;SDS011;47184;57.998;56.184;2023-08-07T08:55:11;0.15;;;0.15;;
61112;SDS011;47184;57.998;56.184;2023-08-07T08:57:39;0.20;;;0.20;;
61112;SDS011;47184;57.998;56.184;2023-08-07T09:00:06;0.10;;;0.10;;
61112;SDS011;47184;57.998;56.184;2023-08-07T09:02:43;0.20;;;0.20;;
61112;SDS011;47184;57.998;56.184;2023-08-07T09:05:10;0.20;;;0.20;;
61112;SDS011;47184;57.998;56.184;2023-08-07T09:07:36;0.20;;;0.20;;
61112;SDS011;47184;57.998;56.184;2023-08-07T09:10:03;0.20;;;0.20;;
61112;SDS011;47184;57.998;56.184;2023-08-07T09:12:32;0.20;;;0.20;;
61112;SDS011;47184;57.998;56.184;2023-08-07T09:14:59;0.30;;;0.30;;
61112;SDS011;47184;57.998;56.184;2023-08-07T09:17:31;0.20;;;0.20;;
61112;SDS011;47184;57.998;56.184;2023-08-07T09:20:04;0.30;;;0.30;;
61112;SDS011;47184;57.998;56.184;2023-08-07T09:22:32;0.25;;;0.25;;
61112;SDS011;47184;57.998;56.184;2023-08-07T09:24:58;0.30;;;0.30;;
61112;SDS011;47184;57.998;56.184;2023-08-07T09:27:25;0.20;;;0.20;;
61112;SDS011;47184;57.998;56.184;2023-08-07T09:29:51;0.20;;;0.20;;
61112;SDS011;47184;57.998;56.184;2023-08-07T09:32:20;0.20;;;0.20;;
61112;SDS011;47184;57.998;56.184;2023-08-07T09:34:48;0.20;;;0.20;;
61112;SDS011;47184;57.998;56.184;2023-08-07T09:37:15;0.30;;;0.30;;
61112;SDS011;47184;57.998;56.184;2023-08-07T09:39:41;0.20;;;0.20;;
61112;SDS011;47184;57.998;56.184;2023-08-07T09:42:16;0.30;;;0.30;;
61112;SDS011;47184;57.998;56.184;2023-08-07T09:44:42;0.40;;;0.40;;
61112;SDS011;47184;57.998;56.184;2023-08-07T09:47:14;0.40;;;0.40;;
61112;SDS011;47184;57.998;56.184;2023-08-07T09:49:41;0.30;;;0.30;;
61112;SDS011;47184;57.998;56.184;2023-08-07T09:52:09;0.30;;;0.30;;
61112;SDS011;47184;57.998;56.184;2023-08-07T09:54:36;0.40;;;0.40;;
61112;SDS011;47184;57.998;56.184;2023-08-07T09:57:03;0.30;;;0.30;;
61112;SDS011;47184;57.998;56.184;2023-08-07T09:59:31;0.30;;;0.30;;
61112;SDS011;47184;57.998;56.184;2023-08-07T10:01:58;0.40;;;0.40;;
61112;SDS011;47184;57.998;56.184;2023-08-07T10:04:26;0.43;;;0.43;;
61112;SDS011;47184;57.998;56.184;2023-08-07T10:06:53;0.40;;;0.40;;
61112;SDS011;47184;57.998;56.184;2023-08-07T10:09:20;0.50;;;0.50;;
61112;SDS011;47184;57.998;56.184;2023-08-07T10:11:46;0.40;;;0.40;;
61112;SDS011;47184;57.998;56.184;2023-08-07T10:14:14;0.40;;;0.40;;
61112;SDS011;47184;57.998;56.184;2023-08-07T10:16:41;0.60;;;0.60;;
61112;SDS011;47184;57.998;56.184;2023-08-07T10:19:07;0.60;;;0.60;;
61112;SDS011;47184;57.998;56.184;2023-08-07T10:21:35;0.45;;;0.45;;
61112;SDS011;47184;57.998;56.184;2023-08-07T10:24:03;0.47;;;0.47;;
61112;SDS011;47184;57.998;56.184;2023-08-07T10:26:30;0.40;;;0.40;;
61112;SDS011;47184;57.998;56.184;2023-08-07T10:29:00;0.50;;;0.50;;
61112;SDS011;47184;57.998;56.184;2023-08-07T10:31:28;0.50;;;0.50;;
61112;SDS011;47184;57.998;56.184;2023-08-07T10:33:55;0.55;;;0.55;;
61112;SDS011;47184;57.998;56.184;2023-08-07T10:36:21;0.60;;;0.60;;
61112;SDS011;47184;57.998;56.184;2023-08-07T10:38:51;0.50;;;0.50;;
61112;SDS011;47184;57.998;56.184;2023-08-07T10:41:37;0.60;;;0.60;;
61112;SDS011;47184;57.998;56.184;2023-08-07T10:44:20;0.60;;;0.60;;
61112;SDS011;47184;57.998;56.184;2023-08-07T10:46:48;0.60;;;0.60;;
61112;SDS011;47184;57.998;56.184;2023-08-07T10:52:07;0.75;;;0.75;;
61112;SDS011;47184;57.998;56.184;2023-08-07T10:54:44;0.50;;;0.50;;
61112;SDS011;47184;57.998;56.184;2023-08-07T10:57:12;0.63;;;0.63;;
61112;SDS011;47184;57.998;56.184;2023-08-07T11:02:28;0.30;;;0.30;;
61112;SDS011;47184;57.998;56.184;2023-08-07T11:04:56;0.50;;;0.50;;
61112;SDS011;47184;57.998;56.184;2023-08-07T11:07:26;0.40;;;0.40;;
61112;SDS011;47184;57.998;56.184;2023-08-07T11:09:53;0.20;;;0.20;;
61112;SDS011;47184;57.998;56.184;2023-08-07T11:12:20;0.20;;;0.20;;
61112;SDS011;47184;57.998;56.184;2023-08-07T11:14:46;0.22;;;0.22;;
61112;SDS011;47184;57.998;56.184;2023-08-07T11:17:12;0.20;;;0.20;;
61112;SDS011;47184;57.998;56.184;2023-08-07T11:19:38;0.20;;;0.20;;
61112;SDS011;47184;57.998;56.184;2023-08-07T11:22:05;0.15;;;0.15;;
61112;SDS011;47184;57.998;56.184;2023-08-07T11:24:31;0.20;;;0.20;;
61112;SDS011;47184;57.998;56.184;2023-08-07T11:26:57;0.20;;;0.20;;
61112;SDS011;47184;57.998;56.184;2023-08-07T11:29:24;0.28;;;0.28;;
61112;SDS011;47184;57.998;56.184;2023-08-07T11:31:51;0.25;;;0.25;;
61112;SDS011;47184;57.998;56.184;2023-08-07T11:34:17;0.20;;;0.20;;
61112;SDS011;47184;57.998;56.184;2023-08-07T11:36:44;0.30;;;0.30;;
61112;SDS011;47184;57.998;56.184;2023-08-07T11:39:11;0.10;;;0.10;;
61112;SDS011;47184;57.998;56.184;2023-08-07T11:41:39;0.30;;;0.30;;
61112;SDS011;47184;57.998;56.184;2023-08-07T11:44:09;0.20;;;0.20;;
61112;SDS011;47184;57.998;56.184;2023-08-07T11:46:36;0.30;;;0.30;;
61112;SDS011;47184;57.998;56.184;2023-08-07T11:49:02;0.30;;;0.30;;
61112;SDS011;47184;57.998;56.184;2023-08-07T11:51:32;0.30;;;0.30;;
61112;SDS011;47184;57.998;56.184;2023-08-07T11:53:58;0.30;;;0.30;;
61112;SDS011;47184;57.998;56.184;2023-08-07T11:56:25;0.40;;;0.40;;
61112;SDS011;47184;57.998;56.184;2023-08-07T11:58:52;0.40;;;0.40;;
61112;SDS011;47184;57.998;56.184;2023-08-07T12:01:21;0.40;;;0.40;;
61112;SDS011;47184;57.998;56.184;2023-08-07T12:06:34;0.40;;;0.40;;
61112;SDS011;47184;57.998;56.184;2023-08-07T12:09:01;0.30;;;0.30;;
61112;SDS011;47184;57.998;56.184;2023-08-07T12:11:31;0.20;;;0.20;;
61112;SDS011;47184;57.998;56.184;2023-08-07T12:13:59;0.20;;;0.20;;
61112;SDS011;47184;57.998;56.184;2023-08-07T12:16:26;0.30;;;0.30;;
61112;SDS011;47184;57.998;56.184;2023-08-07T12:18:52;0.30;;;0.30;;
61112;SDS011;47184;57.998;56.184;2023-08-07T12:21:21;0.20;;;0.20;;
61112;SDS011;47184;57.998;56.184;2023-08-07T12:23:49;0.20;;;0.20;;
61112;SDS011;47184;57.998;56.184;2023-08-07T12:26:16;0.30;;;0.30;;
61112;SDS011;47184;57.998;56.184;2023-08-07T12:28:43;0.30;;;0.30;;
61112;SDS011;47184;57.998;56.184;2023-08-07T12:31:09;0.20;;;0.20;;
61112;SDS011;47184;57.998;56.184;2023-08-07T12:33:35;0.10;;;0.10;;
61112;SDS011;47184;57.998;56.184;2023-08-07T12:36:02;0.20;;;0.20;;
61112;SDS011;47184;57.998;56.184;2023-08-07T12:38:28;0.30;;;0.30;;
61112;SDS011;47184;57.998;56.184;2023-08-07T12:40:54;0.30;;;0.30;;
61112;SDS011;47184;57.998;56.184;2023-08-07T12:43:21;0.20;;;0.20;;
61112;SDS011;47184;57.998;56.184;2023-08-07T12:45:47;0.20;;;0.20;;
61112;SDS011;47184;57.998;56.184;2023-08-07T12:48:13;0.25;;;0.25;;
61112;SDS011;47184;57.998;56.184;2023-08-07T12:50:39;0.20;;;0.20;;
61112;SDS011;47184;57.998;56.184;2023-08-07T12:53:06;0.22;;;0.22;;
61112;SDS011;47184;57.998;56.184;2023-08-07T12:55:34;0.20;;;0.20;;
61112;SDS011;47184;57.998;56.184;2023-08-07T12:58:00;0.30;;;0.30;;
61112;SDS011;47184;57.998;56.184;2023-08-07T13:00:27;0.30;;;0.30;;
61112;SDS011;47184;57.998;56.184;2023-08-07T13:02:53;0.30;;;0.30;;
61112;SDS011;47184;57.998;56.184;2023-08-07T13:05:21;0.40;;;0.40;;
61112;SDS011;47184;57.998;56.184;2023-08-07T13:07:48;0.30;;;0.30;;
61112;SDS011;47184;57.998;56.184;2023-08-07T13:10:16;0.35;;;0.35;;
61112;SDS011;47184;57.998;56.184;2023-08-07T13:12:43;0.30;;;0.30;;
61112;SDS011;47184;57.998;56.184;2023-08-07T13:15:13;0.20;;;0.20;;
61112;SDS011;47184;57.998;56.184;2023-08-07T13:17:40;0.20;;;0.20;;
61112;SDS011;47184;57.998;56.184;2023-08-07T13:20:07;0.30;;;0.30;;
61112;SDS011;47184;57.998;56.184;2023-08-07T13:22:35;0.25;;;0.25;;
61112;SDS011;47184;57.998;56.184;2023-08-07T13:25:02;0.20;;;0.20;;
61112;SDS011;47184;57.998;56.184;2023-08-07T13:27:31;0.20;;;0.20;;
61112;SDS011;47184;57.998;56.184;2023-08-07T13:29:58;0.20;;;0.20;;
61112;SDS011;47184;57.998;56.184;2023-08-07T13:32:25;0.10;;;0.10;;
61112;SDS011;47184;57.998;56.184;2023-08-07T13:34:51;0.15;;;0.10;;
61112;SDS011;47184;57.998;56.184;2023-08-07T13:37:18;0.10;;;0.10;;
61112;SDS011;47184;57.998;56.184;2023-08-07T13:39:43;0.00;;;0.00;;
61112;SDS011;47184;57.998;56.184;2023-08-07T13:42:10;0.00;;;0.00;;
61112;SDS011;47184;57.998;56.184;2023-08-07T13:44:36;0.00;;;0.00;;
61112;SDS011;47184;57.998;56.184;2023-08-07T13:47:04;0.00;;;0.00;;
61112;SDS011;47184;57.998;56.184;2023-08-07T13:49:31;0.00;;;0.00;;
61112;SDS011;47184;57.998;56.184;2023-08-07T13:51:57;0.00;;;0.00;;
61112;SDS011;47184;57.998;56.184;2023-08-07T13:54:23;0.00;;;0.00;;
61112;SDS011;47184;57.998;56.184;2023-08-07T13:56:50;0.00;;;0.00;;
61112;SDS011;47184;57.998;56.184;2023-08-07T13:59:16;0.00;;;0.00;;
61112;SDS011;47184;57.998;56.184;2023-08-07T14:01:43;0.00;;;0.00;;
61112;SDS011;47184;57.998;56.184;2023-08-07T14:04:09;0.00;;;0.00;;
61112;SDS011;47184;57.998;56.184;2023-08-07T14:06:36;0.00;;;0.00;;
61112;SDS011;47184;57.998;56.184;2023-08-07T14:09:03;0.00;;;0.00;;
61112;SDS011;47184;57.998;56.184;2023-08-07T14:11:29;0.00;;;0.00;;
61112;SDS011;47184;57.998;56.184;2023-08-07T14:13:57;0.00;;;0.00;;
61112;SDS011;47184;57.998;56.184;2023-08-07T14:16:24;0.00;;;0.00;;
61112;SDS011;47184;57.998;56.184;2023-08-07T14:18:50;0.00;;;0.00;;
61112;SDS011;47184;57.998;56.184;2023-08-07T14:21:17;0.00;;;0.00;;
61112;SDS011;47184;57.998;56.184;2023-08-07T14:23:43;0.00;;;0.00;;
61112;SDS011;47184;57.998;56.184;2023-08-07T14:26:11;0.00;;;0.00;;
61112;SDS011;47184;57.998;56.184;2023-08-07T14:28:38;0.00;;;0.00;;
61112;SDS011;47184;57.998;56.184;2023-08-07T14:31:07;0.00;;;0.00;;
61112;SDS011;47184;57.998;56.184;2023-08-07T14:33:33;0.00;;;0.00;;
61112;SDS011;47184;57.998;56.184;2023-08-07T14:36:00;0.00;;;0.00;;
61112;SDS011;47184;57.998;56.184;2023-08-07T14:38:27;0.00;;;0.00;;
61112;SDS011;47184;57.998;56.184;2023-08-07T14:40:54;0.00;;;0.00;;
61112;SDS011;47184;57.998;56.184;2023-08-07T14:43:21;0.00;;;0.00;;
61112;SDS011;47184;57.998;56.184;2023-08-07T14:45:48;0.00;;;0.00;;
61112;SDS011;47184;57.998;56.184;2023-08-07T14:48:15;0.00;;;0.00;;